createdAt,value
2023-05-11T00:02:01.531Z,100448.13
2023-05-11T00:04:49.164Z,100473.84
2023-05-11T00:07:39.372Z,100470.34
2023-05-11T00:10:28.767Z,100448.94
2023-05-11T00:13:16.525Z,100472.75
2023-05-11T00:16:04.928Z,100471.97
2023-05-11T00:18:52.789Z,100475.44
2023-05-11T00:21:40.567Z,100475.09
2023-05-11T00:24:28.503Z,100474.38
2023-05-11T00:27:16.249Z,100472.94
2023-05-11T00:30:04.278Z,100471.44
2023-05-11T00:32:52.377Z,100452.41
2023-05-11T00:35:40.400Z,100488.47
2023-05-11T00:38:28.040Z,100480.44
2023-05-11T00:41:16.228Z,100480.16
2023-05-11T00:44:06.465Z,100481.41
2023-05-11T00:46:54.263Z,100464.81
2023-05-11T00:49:42.452Z,100470.06
2023-05-11T00:52:30.440Z,100473.75
2023-05-11T00:55:21.452Z,100455.72
2023-05-11T00:58:09.359Z,100470.19
2023-05-11T01:00:56.998Z,100449.91
2023-05-11T01:03:48.826Z,100468.09
2023-05-11T01:06:55.757Z,100462.84
2023-05-11T01:10:06.916Z,100473.75
2023-05-11T01:13:14.971Z,100478.38
2023-05-11T01:16:09.323Z,100481.41
2023-05-11T01:19:18.719Z,100469.97
2023-05-11T01:22:21.429Z,100446.31
2023-05-11T01:25:47.745Z,100486.56
2023-05-11T01:28:57.413Z,100476.28
2023-05-11T01:31:48.523Z,100475.50
2023-05-11T01:34:38.808Z,100473.88
2023-05-11T01:37:27.564Z,100469.06
2023-05-11T01:40:19.157Z,100467.47
2023-05-11T01:43:19.051Z,100460.34
2023-05-11T01:46:13.099Z,100456.13
2023-05-11T01:49:03.821Z,100459.13
2023-05-11T01:51:53.090Z,100474.31
2023-05-11T01:54:42.970Z,100475.91
2023-05-11T01:57:32.516Z,100479.19
2023-05-11T02:00:21.344Z,100489.53
2023-05-11T02:03:10.538Z,100491.41
2023-05-11T02:05:59.402Z,100460.94
2023-05-11T02:08:49.368Z,100488.88
2023-05-11T02:11:39.251Z,100486.06
2023-05-11T02:14:34.353Z,100485.25
2023-05-11T02:17:24.353Z,100494.34
2023-05-11T02:20:14.003Z,100489.53
2023-05-11T02:23:03.290Z,100481.41
2023-05-11T02:25:53.111Z,100491.28
2023-05-11T02:28:40.997Z,100497.63
2023-05-11T02:31:32.865Z,100487.06
2023-05-11T02:34:28.274Z,100488.09
2023-05-11T02:37:22.710Z,100460.66
2023-05-11T02:40:17.493Z,100460.09
2023-05-11T02:43:17.900Z,100482.84
2023-05-11T02:46:17.515Z,100485.16
2023-05-11T02:49:09.701Z,100483.00
2023-05-11T02:52:01.665Z,100496.59
2023-05-11T02:54:51.614Z,100490.16
2023-05-11T02:57:39.661Z,100481.22
2023-05-11T03:00:29.716Z,100501.09
2023-05-11T03:03:17.682Z,100489.94
2023-05-11T03:06:05.692Z,100503.22
2023-05-11T03:08:53.424Z,100475.50
2023-05-11T03:11:42.769Z,100503.84
2023-05-11T03:14:36.418Z,100510.78
2023-05-11T03:17:25.496Z,100494.34
2023-05-11T03:20:16.316Z,100521.16
2023-05-11T03:23:06.900Z,100506.75
2023-05-11T03:25:55.462Z,100515.25
2023-05-11T03:28:45.216Z,100511.00
2023-05-11T03:31:36.210Z,100472.72
2023-05-11T03:34:24.371Z,100466.28
2023-05-11T03:37:14.159Z,100501.13
2023-05-11T03:40:04.448Z,100501.56
2023-05-11T03:43:05.617Z,100507.44
2023-05-11T03:45:54.364Z,100498.94
2023-05-11T03:48:43.789Z,100503.41
2023-05-11T03:51:35.737Z,100507.78
2023-05-11T03:54:24.230Z,100503.63
2023-05-11T03:57:12.648Z,100507.44
2023-05-11T04:00:00.375Z,100505.72
2023-05-11T04:02:48.541Z,100487.88
2023-05-11T04:05:37.868Z,100493.63
2023-05-11T04:08:29.881Z,100516.63
2023-05-11T04:11:17.709Z,100512.75
2023-05-11T04:14:06.015Z,100517.56
2023-05-11T04:16:54.676Z,100524.69
2023-05-11T04:19:43.389Z,100524.81
2023-05-11T04:22:31.050Z,100510.44
2023-05-11T04:25:18.764Z,100481.34
2023-05-11T04:28:06.366Z,100522.50
2023-05-11T04:30:59.659Z,100519.50
2023-05-11T04:33:47.411Z,100497.78
2023-05-11T04:36:36.274Z,100535.25
2023-05-11T04:39:26.531Z,100534.94
2023-05-11T04:42:14.509Z,100462.38
2023-05-11T04:45:04.259Z,100526.88
2023-05-11T04:47:51.959Z,100532.19
2023-05-11T04:50:39.771Z,100515.03
2023-05-11T04:53:28.691Z,100539.72
2023-05-11T04:56:16.458Z,100544.91
2023-05-11T04:59:05.412Z,100539.72
2023-05-11T05:01:53.213Z,100544.25
2023-05-11T05:04:40.937Z,100547.38
2023-05-11T05:07:29.706Z,100543.44
2023-05-11T05:10:17.907Z,100543.09
2023-05-11T05:13:05.794Z,100549.19
2023-05-11T05:15:53.972Z,100545.41
2023-05-11T05:18:44.816Z,100555.47
2023-05-11T05:21:32.869Z,100558.22
2023-05-11T05:24:20.682Z,100558.50
2023-05-11T05:27:08.489Z,100529.63
2023-05-11T05:29:56.356Z,100565.09
2023-05-11T05:32:45.981Z,100547.81
2023-05-11T05:35:33.745Z,100551.50
2023-05-11T05:38:22.142Z,100562.44
2023-05-11T05:41:10.086Z,100544.28
2023-05-11T05:44:00.716Z,100551.69
2023-05-11T05:46:48.448Z,100528.47
2023-05-11T05:49:36.474Z,100566.81
2023-05-11T05:52:44.212Z,100580.31
2023-05-11T05:55:33.450Z,100563.41
2023-05-11T05:58:26.264Z,100564.28
2023-05-11T06:01:14.156Z,100561.28
2023-05-11T06:04:02.092Z,100561.69
2023-05-11T06:06:52.507Z,100566.75
2023-05-11T06:10:50.320Z,100574.91
2023-05-11T06:13:43.655Z,100582.28
2023-05-11T06:16:31.365Z,100566.16
2023-05-11T06:19:20.313Z,100583.13
2023-05-11T06:22:08.096Z,100579.16
2023-05-11T06:24:56.713Z,100580.69
2023-05-11T06:27:44.814Z,100567.56
2023-05-11T06:30:32.801Z,100574.06
2023-05-11T06:33:21.398Z,100591.41
2023-05-11T06:36:13.098Z,100575.88
2023-05-11T06:39:00.919Z,100561.91
2023-05-11T06:41:53.530Z,100586.59
2023-05-11T06:44:42.222Z,100559.56
2023-05-11T06:47:31.537Z,100575.72
2023-05-11T06:50:21.086Z,100579.66
2023-05-11T06:53:10.988Z,100572.13
2023-05-11T06:55:58.636Z,100588.41
2023-05-11T06:58:47.120Z,100585.56
2023-05-11T07:01:34.931Z,100570.78
2023-05-11T07:04:22.913Z,100574.13
2023-05-11T07:07:12.406Z,100556.06
2023-05-11T07:10:00.143Z,100574.53
2023-05-11T07:12:47.978Z,100569.66
2023-05-11T07:15:35.867Z,100572.66
2023-05-11T07:18:19.842Z,100577.59
2023-05-11T07:21:07.744Z,100579.09
2023-05-11T07:23:55.370Z,100574.66
2023-05-11T07:26:43.216Z,100563.53
2023-05-11T07:29:30.860Z,100576.41
2023-05-11T07:32:18.740Z,100572.91
2023-05-11T07:35:06.876Z,100558.47
2023-05-11T07:37:54.748Z,100541.72
2023-05-11T07:40:42.409Z,100580.06
2023-05-11T07:43:30.699Z,100556.41
2023-05-11T07:46:18.333Z,100584.44
2023-05-11T07:52:01.970Z,100565.84
2023-05-11T07:54:52.059Z,100562.72
2023-05-11T07:57:39.635Z,100565.78
2023-05-11T08:00:28.000Z,100576.94
2023-05-11T08:03:16.064Z,100572.97
2023-05-11T08:06:04.465Z,100574.81
2023-05-11T08:08:52.317Z,100578.16
2023-05-11T08:11:40.135Z,100568.31
2023-05-11T08:14:27.937Z,100573.75
2023-05-11T08:17:15.870Z,100592.28
2023-05-11T08:20:06.995Z,100575.09
2023-05-11T08:22:54.861Z,100572.22
2023-05-11T08:25:42.936Z,100584.31
2023-05-11T08:28:30.737Z,100579.59
2023-05-11T08:31:18.862Z,100573.72
2023-05-11T08:34:18.647Z,100578.19
2023-05-11T08:37:07.665Z,100581.06
2023-05-11T08:39:55.382Z,100577.63
2023-05-11T08:42:47.118Z,100579.47
2023-05-11T08:45:38.671Z,100584.22
2023-05-11T08:48:27.638Z,100565.72
2023-05-11T08:51:15.884Z,100575.44
2023-05-11T08:54:03.936Z,100562.06
2023-05-11T08:56:52.089Z,100554.81
2023-05-11T08:59:41.072Z,100548.63
2023-05-11T09:02:29.748Z,100566.78
2023-05-11T09:05:18.489Z,100561.75
2023-05-11T09:08:07.428Z,100550.38
2023-05-11T09:10:55.577Z,100557.31
2023-05-11T09:13:43.503Z,100546.31
2023-05-11T09:16:37.248Z,100546.03
2023-05-11T09:19:25.781Z,100552.38
2023-05-11T09:22:13.389Z,100546.72
2023-05-11T09:25:05.071Z,100537.38
2023-05-11T09:27:53.045Z,100547.28
2023-05-11T09:30:40.890Z,100540.28
2023-05-11T09:33:28.580Z,100538.94
2023-05-11T09:36:24.648Z,100518.56
2023-05-11T09:39:16.635Z,100546.44
2023-05-11T09:42:14.599Z,100535.34
2023-05-11T09:45:02.209Z,100542.16
2023-05-11T09:47:49.972Z,100536.53
2023-05-11T09:50:37.718Z,100526.44
2023-05-11T09:53:35.167Z,100531.28
2023-05-11T09:57:00.387Z,100522.72
2023-05-11T09:59:48.217Z,100523.25
2023-05-11T10:02:36.144Z,100533.69
2023-05-11T10:05:25.061Z,100491.09
2023-05-11T10:08:12.786Z,100516.78
2023-05-11T10:11:02.710Z,100512.25
2023-05-11T10:13:51.593Z,100509.50
2023-05-11T10:16:44.470Z,100503.94
2023-05-11T10:19:33.649Z,100500.09
2023-05-11T10:22:24.834Z,100502.19
2023-05-11T10:25:13.676Z,100494.94
2023-05-11T10:28:01.558Z,100483.13
2023-05-11T10:30:49.836Z,100487.88
2023-05-11T10:33:37.897Z,100484.38
2023-05-11T10:36:26.531Z,100480.22
2023-05-11T10:39:14.295Z,100474.59
2023-05-11T10:42:29.865Z,100475.78
2023-05-11T10:45:17.495Z,100455.56
2023-05-11T10:48:16.910Z,100457.75
2023-05-11T10:51:34.255Z,100472.28
2023-05-11T10:54:46.713Z,100466.00
2023-05-11T10:57:56.708Z,100455.69
2023-05-11T11:01:09.719Z,100446.19
2023-05-11T11:03:58.589Z,100455.09
2023-05-11T11:06:46.547Z,100449.94
2023-05-11T11:10:10.192Z,100449.28
2023-05-11T11:13:11.570Z,100442.59
2023-05-11T11:16:00.599Z,100452.59
2023-05-11T11:18:48.423Z,100453.78
2023-05-11T11:21:43.298Z,100440.44
2023-05-11T11:24:44.987Z,100444.03
2023-05-11T11:27:42.037Z,100424.72
2023-05-11T11:31:22.088Z,100451.31
2023-05-11T11:34:30.667Z,100442.13
2023-05-11T11:37:19.038Z,100438.41
2023-05-11T11:40:14.624Z,100447.69
2023-05-11T11:43:20.112Z,100411.72
2023-05-11T11:46:09.939Z,100408.28
2023-05-11T11:49:08.660Z,100387.81
2023-05-11T11:51:56.573Z,100411.28
2023-05-11T11:54:45.682Z,100419.94
2023-05-11T11:57:33.562Z,100421.06
2023-05-11T12:00:21.706Z,100397.72
2023-05-11T12:03:11.595Z,100427.94
2023-05-11T12:06:01.953Z,100406.81
2023-05-11T12:08:49.941Z,100408.03
2023-05-11T12:11:38.531Z,100409.00
2023-05-11T12:14:27.800Z,100414.56
2023-05-11T12:17:24.943Z,100390.84
2023-05-11T12:20:18.821Z,100374.59
2023-05-11T12:23:12.640Z,100397.31
2023-05-11T12:26:22.068Z,100394.81
2023-05-11T12:29:11.881Z,100377.22
2023-05-11T12:32:03.125Z,100403.66
2023-05-11T12:35:07.357Z,100397.44
2023-05-11T12:37:56.771Z,100381.88
2023-05-11T12:40:51.554Z,100391.50
2023-05-11T12:43:39.392Z,100357.00
2023-05-11T12:46:27.529Z,100377.75
2023-05-11T12:49:25.356Z,100373.19
2023-05-11T12:52:14.592Z,100382.69
2023-05-11T12:55:05.438Z,100356.75
2023-05-11T12:57:54.890Z,100375.25
2023-05-11T13:00:59.986Z,100363.84
2023-05-11T13:03:48.357Z,100371.78
2023-05-11T13:06:36.733Z,100356.31
2023-05-11T13:09:28.058Z,100355.59
2023-05-11T13:12:19.495Z,100354.78
2023-05-11T13:15:15.509Z,100316.19
2023-05-11T13:18:03.797Z,100352.47
2023-05-11T13:21:05.932Z,100349.19
2023-05-11T13:23:54.734Z,100320.03
2023-05-11T13:26:42.350Z,100342.72
2023-05-11T13:29:30.091Z,100306.94
2023-05-11T13:32:17.777Z,100342.81
2023-05-11T13:35:06.378Z,100330.72
2023-05-11T13:37:53.970Z,100337.19
2023-05-11T13:40:41.837Z,100334.22
2023-05-11T13:43:30.059Z,100327.84
2023-05-11T13:46:18.961Z,100324.47
2023-05-11T13:49:09.572Z,100309.75
2023-05-11T13:51:57.459Z,100319.97
2023-05-11T13:54:46.094Z,100296.06
2023-05-11T13:57:33.918Z,100325.94
2023-05-11T14:00:21.897Z,100330.22
2023-05-11T14:03:09.722Z,100305.69
2023-05-11T14:05:58.117Z,100328.16
2023-05-11T14:08:45.867Z,100290.16
2023-05-11T14:11:33.448Z,100322.16
2023-05-11T14:14:21.395Z,100326.81
2023-05-11T14:17:10.917Z,100327.09
2023-05-11T14:19:58.597Z,100314.19
2023-05-11T14:22:47.312Z,100326.56
2023-05-11T14:25:36.721Z,100329.72
2023-05-11T14:28:24.368Z,100325.38
2023-05-11T14:31:12.264Z,100293.00
2023-05-11T14:34:00.059Z,100314.66
2023-05-11T14:36:50.300Z,100286.00
2023-05-11T14:39:37.948Z,100321.94
2023-05-11T14:42:30.068Z,100298.44
2023-05-11T14:45:17.841Z,100306.13
2023-05-11T14:48:06.311Z,100305.13
2023-05-11T14:50:54.124Z,100301.88
2023-05-11T14:53:42.965Z,100307.47
2023-05-11T14:56:30.874Z,100294.41
2023-05-11T14:59:18.722Z,100307.41
2023-05-11T15:02:06.498Z,100308.19
2023-05-11T15:04:54.439Z,100303.91
2023-05-11T15:07:42.168Z,100308.13
2023-05-11T15:10:30.045Z,100318.63
2023-05-11T15:13:18.520Z,100318.88
2023-05-11T15:16:07.716Z,100312.28
2023-05-11T15:18:55.666Z,100297.16
2023-05-11T15:21:43.782Z,100285.84
2023-05-11T15:24:31.406Z,100315.44
2023-05-11T15:27:19.212Z,100311.59
2023-05-11T15:30:07.484Z,100279.28
2023-05-11T15:33:07.781Z,100298.97
2023-05-11T15:35:58.226Z,100277.97
2023-05-11T15:38:51.842Z,100301.13
2023-05-11T15:41:39.350Z,100307.53
2023-05-11T15:44:27.113Z,100318.72
2023-05-11T15:47:16.466Z,100320.78
2023-05-11T15:50:04.996Z,100308.84
2023-05-11T15:52:53.605Z,100283.78
2023-05-11T15:55:46.115Z,100316.03
2023-05-11T15:58:33.819Z,100313.28
2023-05-11T16:01:21.769Z,100305.34
2023-05-11T16:04:15.574Z,100322.16
2023-05-11T16:07:03.580Z,100319.75
2023-05-11T16:09:51.404Z,100293.41
2023-05-11T16:12:39.287Z,100284.28
2023-05-11T16:15:27.565Z,100317.00
2023-05-11T16:18:20.101Z,100318.59
2023-05-11T16:21:10.917Z,100328.97
2023-05-11T16:24:02.062Z,100321.41
2023-05-11T16:26:52.614Z,100324.59
2023-05-11T16:29:40.387Z,100317.81
2023-05-11T16:32:30.670Z,100306.66
2023-05-11T16:35:18.791Z,100320.22
2023-05-11T16:38:08.711Z,100326.19
2023-05-11T16:41:07.999Z,100305.06
2023-05-11T16:43:56.208Z,100316.63
2023-05-11T16:46:44.049Z,100334.56
2023-05-11T16:49:31.934Z,100313.03
2023-05-11T16:52:19.707Z,100339.75
2023-05-11T16:55:08.220Z,100333.78
2023-05-11T16:57:56.053Z,100333.75
2023-05-11T17:00:46.512Z,100304.19
2023-05-11T17:03:35.675Z,100311.75
2023-05-11T17:06:24.966Z,100330.50
2023-05-11T17:09:13.430Z,100318.91
2023-05-11T17:12:03.910Z,100304.59
2023-05-11T17:14:54.744Z,100279.00
2023-05-11T17:17:42.909Z,100291.38
2023-05-11T17:20:33.823Z,100340.41
2023-05-11T17:23:22.077Z,100335.22
2023-05-11T17:26:13.695Z,100340.00
2023-05-11T17:29:01.650Z,100342.38
2023-05-11T17:31:51.805Z,100349.56
2023-05-11T17:34:39.810Z,100329.19
2023-05-11T17:37:31.721Z,100329.16
2023-05-11T17:40:20.297Z,100321.59
2023-05-11T17:43:08.149Z,100343.94
2023-05-11T17:45:55.874Z,100338.75
2023-05-11T17:48:46.084Z,100349.13
2023-05-11T17:51:33.747Z,100321.56
2023-05-11T17:54:29.780Z,100348.69
2023-05-11T17:57:17.558Z,100355.06
2023-05-11T18:00:06.875Z,100360.63
2023-05-11T18:02:54.772Z,100333.47
2023-05-11T18:08:36.799Z,100343.81
2023-05-11T18:11:24.567Z,100361.00
2023-05-11T18:14:12.252Z,100335.81
2023-05-11T18:17:00.143Z,100350.94
2023-05-11T18:19:47.796Z,100362.53
2023-05-11T18:22:35.534Z,100372.88
2023-05-11T18:25:28.138Z,100357.25
2023-05-11T18:28:17.037Z,100364.81
2023-05-11T18:31:04.776Z,100383.59
2023-05-11T18:33:52.756Z,100394.28
2023-05-11T18:36:40.462Z,100407.81
2023-05-11T18:39:28.468Z,100376.19
2023-05-11T18:42:16.145Z,100395.78
2023-05-11T18:45:04.161Z,100388.09
2023-05-11T18:47:52.105Z,100342.59
2023-05-11T18:50:40.650Z,100358.50
2023-05-11T18:53:28.473Z,100339.19
2023-05-11T18:56:17.627Z,100401.53
2023-05-11T18:59:05.320Z,100404.78
2023-05-11T19:01:53.166Z,100331.47
2023-05-11T19:04:41.239Z,100422.94
2023-05-11T19:07:28.975Z,100421.28
2023-05-11T19:10:18.377Z,100385.69
2023-05-11T19:13:07.494Z,100414.81
2023-05-11T19:15:55.227Z,100415.94
2023-05-11T19:18:42.959Z,100436.19
2023-05-11T19:21:30.724Z,100432.19
2023-05-11T19:24:18.626Z,100404.13
2023-05-11T19:27:07.764Z,100428.47
2023-05-11T19:29:56.370Z,100434.88
2023-05-11T19:32:44.479Z,100399.22
2023-05-11T19:35:34.642Z,100426.78
2023-05-11T19:38:22.873Z,100418.69
2023-05-11T19:41:10.576Z,100411.84
2023-05-11T19:43:58.212Z,100434.28
2023-05-11T19:46:48.466Z,100428.25
2023-05-11T19:49:36.462Z,100408.56
2023-05-11T19:52:24.139Z,100427.38
2023-05-11T19:55:11.860Z,100432.09
2023-05-11T19:58:04.902Z,100409.56
2023-05-11T20:00:59.445Z,100438.44
2023-05-11T20:03:50.245Z,100437.31
2023-05-11T20:06:37.878Z,100439.56
2023-05-11T20:09:25.652Z,100419.16
2023-05-11T20:12:13.346Z,100450.53
2023-05-11T20:15:01.337Z,100453.28
2023-05-11T20:17:50.317Z,100445.75
2023-05-11T20:20:41.310Z,100449.66
2023-05-11T20:23:28.946Z,100446.72
2023-05-11T20:26:16.888Z,100440.44
2023-05-11T20:29:05.838Z,100441.03
2023-05-11T20:31:53.574Z,100420.50
2023-05-11T20:34:41.319Z,100453.41
2023-05-11T20:37:29.015Z,100428.38
2023-05-11T20:40:19.333Z,100452.78
2023-05-11T20:43:07.175Z,100455.78
2023-05-11T20:45:55.076Z,100451.28
2023-05-11T20:48:44.652Z,100450.50
2023-05-11T20:51:35.946Z,100422.31
2023-05-11T20:54:24.251Z,100459.63
2023-05-11T20:57:11.980Z,100455.69
2023-05-11T21:02:50.386Z,100463.41
2023-05-11T21:05:38.244Z,100453.00
2023-05-11T21:08:25.965Z,100459.72
2023-05-11T21:14:18.651Z,100466.06
2023-05-11T21:17:06.488Z,100454.00
2023-05-11T21:19:54.164Z,100466.63
2023-05-11T21:22:41.944Z,100453.31
2023-05-11T21:25:29.762Z,100449.19
2023-05-11T21:28:17.750Z,100464.41
2023-05-11T21:31:06.082Z,100480.22
2023-05-11T21:33:53.968Z,100475.81
2023-05-11T21:36:41.609Z,100487.06
2023-05-11T21:39:29.442Z,100447.47
2023-05-11T21:42:18.077Z,100467.41
2023-05-11T21:45:06.611Z,100472.94
2023-05-11T21:47:54.264Z,100475.22
2023-05-11T21:50:44.183Z,100481.50
2023-05-11T21:53:31.916Z,100479.38
2023-05-11T21:56:20.650Z,100485.66
2023-05-11T21:59:08.375Z,100458.50
2023-05-11T22:01:57.492Z,100470.56
2023-05-11T22:04:46.569Z,100461.59
2023-05-11T22:07:34.214Z,100491.44
2023-05-11T22:10:21.842Z,100458.03
2023-05-11T22:13:09.549Z,100492.38
2023-05-11T22:15:57.174Z,100471.88
2023-05-11T22:18:45.314Z,100453.16
2023-05-11T22:21:32.940Z,100484.84
2023-05-11T22:24:21.856Z,100494.09
2023-05-11T22:27:15.442Z,100468.91
2023-05-11T22:30:03.259Z,100499.69
2023-05-11T22:32:50.858Z,100494.50
2023-05-11T22:35:38.715Z,100422.50
2023-05-11T22:38:27.093Z,100498.06
2023-05-11T22:41:14.832Z,100494.44
2023-05-11T22:44:03.154Z,100499.69
2023-05-11T22:46:51.031Z,100499.59
2023-05-11T22:49:38.923Z,100434.53
2023-05-11T22:52:26.764Z,100495.16
2023-05-11T22:55:14.518Z,100493.63
2023-05-11T22:58:04.724Z,100448.38
2023-05-11T23:00:55.998Z,100488.03
2023-05-11T23:03:43.878Z,100488.13
2023-05-11T23:06:32.822Z,100461.25
2023-05-11T23:09:20.862Z,100483.38
2023-05-11T23:12:08.903Z,100494.09
2023-05-11T23:14:56.677Z,100495.63
2023-05-11T23:17:44.584Z,100501.59
2023-05-11T23:20:32.377Z,100500.72
2023-05-11T23:23:19.954Z,100486.16
2023-05-11T23:26:07.652Z,100487.78
2023-05-11T23:28:55.348Z,100487.16
2023-05-11T23:31:43.128Z,100496.31
2023-05-11T23:34:19.779Z,100496.94
2023-05-11T23:37:07.678Z,100504.38
2023-05-11T23:39:55.335Z,100499.28
2023-05-11T23:42:43.123Z,100445.91
2023-05-11T23:45:33.096Z,100493.13
2023-05-11T23:48:20.815Z,100483.75
2023-05-11T23:51:08.562Z,100478.75
2023-05-11T23:53:56.373Z,100499.19
2023-05-11T23:56:44.511Z,100496.44
2023-05-11T23:59:32.323Z,100490.09
